sensor_id;sensor_type;location;lat;lon;timestamp;temperature;humidity
78788;DHT22;68131;52.508;5.502;2023-04-15T00:01:41;10.00;62.10
78788;DHT22;68131;52.508;5.502;2023-04-15T00:04:10;10.00;62.30
78788;DHT22;68131;52.508;5.502;2023-04-15T00:06:39;9.90;62.60
78788;DHT22;68131;52.508;5.502;2023-04-15T00:09:11;9.80;62.70
78788;DHT22;68131;52.508;5.502;2023-04-15T00:11:40;9.80;62.80
78788;DHT22;68131;52.508;5.502;2023-04-15T00:14:09;9.70;62.90
78788;DHT22;68131;52.508;5.502;2023-04-15T00:16:38;9.70;63.00
78788;DHT22;68131;52.508;5.502;2023-04-15T00:19:07;9.70;63.10
78788;DHT22;68131;52.508;5.502;2023-04-15T00:21:36;9.60;63.40
78788;DHT22;68131;52.508;5.502;2023-04-15T00:24:05;9.50;63.50
78788;DHT22;68131;52.508;5.502;2023-04-15T00:26:37;9.50;63.80
78788;DHT22;68131;52.508;5.502;2023-04-15T00:29:06;9.40;63.80
78788;DHT22;68131;52.508;5.502;2023-04-15T00:31:35;9.40;63.90
78788;DHT22;68131;52.508;5.502;2023-04-15T00:34:04;9.40;63.90
78788;DHT22;68131;52.508;5.502;2023-04-15T00:36:34;9.30;64.10
78788;DHT22;68131;52.508;5.502;2023-04-15T00:39:03;9.20;64.20
78788;DHT22;68131;52.508;5.502;2023-04-15T00:41:32;9.20;64.30
78788;DHT22;68131;52.508;5.502;2023-04-15T00:44:07;9.10;64.50
78788;DHT22;68131;52.508;5.502;2023-04-15T00:46:37;9.10;64.60
78788;DHT22;68131;52.508;5.502;2023-04-15T00:49:06;9.10;64.70
78788;DHT22;68131;52.508;5.502;2023-04-15T00:51:36;9.00;64.90
78788;DHT22;68131;52.508;5.502;2023-04-15T00:54:06;9.00;65.10
78788;DHT22;68131;52.508;5.502;2023-04-15T00:56:38;8.90;65.40
78788;DHT22;68131;52.508;5.502;2023-04-15T00:59:10;8.80;65.60
78788;DHT22;68131;52.508;5.502;2023-04-15T01:01:39;8.80;65.60
78788;DHT22;68131;52.508;5.502;2023-04-15T01:04:09;8.70;65.70
78788;DHT22;68131;52.508;5.502;2023-04-15T01:06:39;8.70;65.70
78788;DHT22;68131;52.508;5.502;2023-04-15T01:09:08;8.70;65.90
78788;DHT22;68131;52.508;5.502;2023-04-15T01:11:38;8.70;66.00
78788;DHT22;68131;52.508;5.502;2023-04-15T01:14:11;8.70;66.10
78788;DHT22;68131;52.508;5.502;2023-04-15T01:16:40;8.60;66.30
78788;DHT22;68131;52.508;5.502;2023-04-15T01:19:10;8.50;66.50
78788;DHT22;68131;52.508;5.502;2023-04-15T01:21:40;8.50;66.60
78788;DHT22;68131;52.508;5.502;2023-04-15T01:24:09;8.50;66.70
78788;DHT22;68131;52.508;5.502;2023-04-15T01:26:42;8.50;66.80
78788;DHT22;68131;52.508;5.502;2023-04-15T01:29:12;8.50;66.80
78788;DHT22;68131;52.508;5.502;2023-04-15T01:31:48;8.50;66.80
78788;DHT22;68131;52.508;5.502;2023-04-15T01:34:18;8.50;66.80
78788;DHT22;68131;52.508;5.502;2023-04-15T01:36:47;8.50;67.00
78788;DHT22;68131;52.508;5.502;2023-04-15T01:39:17;8.40;67.10
78788;DHT22;68131;52.508;5.502;2023-04-15T01:41:48;8.40;67.20
78788;DHT22;68131;52.508;5.502;2023-04-15T01:44:17;8.40;67.30
78788;DHT22;68131;52.508;5.502;2023-04-15T01:46:46;8.30;67.50
78788;DHT22;68131;52.508;5.502;2023-04-15T01:49:16;8.30;67.60
78788;DHT22;68131;52.508;5.502;2023-04-15T01:51:45;8.30;67.70
78788;DHT22;68131;52.508;5.502;2023-04-15T01:54:14;8.30;67.70
78788;DHT22;68131;52.508;5.502;2023-04-15T01:56:44;8.30;67.70
78788;DHT22;68131;52.508;5.502;2023-04-15T01:59:15;8.30;67.80
78788;DHT22;68131;52.508;5.502;2023-04-15T02:01:44;8.30;67.90
78788;DHT22;68131;52.508;5.502;2023-04-15T02:04:13;8.30;68.00
78788;DHT22;68131;52.508;5.502;2023-04-15T02:06:44;8.20;68.00
78788;DHT22;68131;52.508;5.502;2023-04-15T02:09:13;8.20;68.20
78788;DHT22;68131;52.508;5.502;2023-04-15T02:11:45;8.20;68.40
78788;DHT22;68131;52.508;5.502;2023-04-15T02:14:17;8.10;68.50
78788;DHT22;68131;52.508;5.502;2023-04-15T02:16:46;8.10;68.60
78788;DHT22;68131;52.508;5.502;2023-04-15T02:19:15;8.10;68.70
78788;DHT22;68131;52.508;5.502;2023-04-15T02:21:45;8.10;68.80
78788;DHT22;68131;52.508;5.502;2023-04-15T02:24:17;8.10;68.70
78788;DHT22;68131;52.508;5.502;2023-04-15T02:26:46;8.10;68.90
78788;DHT22;68131;52.508;5.502;2023-04-15T02:29:18;8.10;68.90
78788;DHT22;68131;52.508;5.502;2023-04-15T02:31:48;8.00;69.10
78788;DHT22;68131;52.508;5.502;2023-04-15T02:34:17;8.00;69.10
78788;DHT22;68131;52.508;5.502;2023-04-15T02:36:46;8.00;69.10
78788;DHT22;68131;52.508;5.502;2023-04-15T02:39:20;8.00;69.10
78788;DHT22;68131;52.508;5.502;2023-04-15T02:41:49;8.00;69.20
78788;DHT22;68131;52.508;5.502;2023-04-15T02:44:21;8.00;69.20
78788;DHT22;68131;52.508;5.502;2023-04-15T02:46:54;8.00;69.20
78788;DHT22;68131;52.508;5.502;2023-04-15T02:49:23;8.00;69.20
78788;DHT22;68131;52.508;5.502;2023-04-15T02:51:54;8.00;69.20
78788;DHT22;68131;52.508;5.502;2023-04-15T02:54:25;8.00;69.20
78788;DHT22;68131;52.508;5.502;2023-04-15T02:56:55;8.00;69.30
78788;DHT22;68131;52.508;5.502;2023-04-15T02:59:26;8.00;69.30
78788;DHT22;68131;52.508;5.502;2023-04-15T03:01:55;8.00;69.30
78788;DHT22;68131;52.508;5.502;2023-04-15T03:04:26;8.00;69.20
78788;DHT22;68131;52.508;5.502;2023-04-15T03:06:55;8.00;69.30
78788;DHT22;68131;52.508;5.502;2023-04-15T03:09:26;8.00;69.40
78788;DHT22;68131;52.508;5.502;2023-04-15T03:11:55;8.00;69.50
78788;DHT22;68131;52.508;5.502;2023-04-15T03:14:27;8.00;69.50
78788;DHT22;68131;52.508;5.502;2023-04-15T03:16:56;8.00;69.60
78788;DHT22;68131;52.508;5.502;2023-04-15T03:19:26;7.90;69.70
78788;DHT22;68131;52.508;5.502;2023-04-15T03:21:55;7.90;69.70
78788;DHT22;68131;52.508;5.502;2023-04-15T03:24:24;7.90;69.80
78788;DHT22;68131;52.508;5.502;2023-04-15T03:26:55;7.90;69.90
78788;DHT22;68131;52.508;5.502;2023-04-15T03:29:29;7.90;69.90
78788;DHT22;68131;52.508;5.502;2023-04-15T03:31:58;7.90;70.00
78788;DHT22;68131;52.508;5.502;2023-04-15T03:34:31;7.90;70.00
78788;DHT22;68131;52.508;5.502;2023-04-15T03:37:01;7.90;70.10
78788;DHT22;68131;52.508;5.502;2023-04-15T03:39:30;7.90;70.10
78788;DHT22;68131;52.508;5.502;2023-04-15T03:41:59;7.90;70.20
78788;DHT22;68131;52.508;5.502;2023-04-15T03:44:31;7.80;70.30
78788;DHT22;68131;52.508;5.502;2023-04-15T03:47:01;7.80;70.50
78788;DHT22;68131;52.508;5.502;2023-04-15T03:49:30;7.80;70.60
78788;DHT22;68131;52.508;5.502;2023-04-15T03:51:59;7.80;70.80
78788;DHT22;68131;52.508;5.502;2023-04-15T03:54:28;7.80;71.00
78788;DHT22;68131;52.508;5.502;2023-04-15T03:56:57;7.70;71.10
78788;DHT22;68131;52.508;5.502;2023-04-15T03:59:31;7.70;71.30
78788;DHT22;68131;52.508;5.502;2023-04-15T04:02:00;7.70;71.40
78788;DHT22;68131;52.508;5.502;2023-04-15T04:04:29;7.70;71.50
78788;DHT22;68131;52.508;5.502;2023-04-15T04:06:58;7.60;71.80
78788;DHT22;68131;52.508;5.502;2023-04-15T04:09:27;7.60;71.90
78788;DHT22;68131;52.508;5.502;2023-04-15T04:11:56;7.60;72.00
78788;DHT22;68131;52.508;5.502;2023-04-15T04:14:26;7.50;72.20
78788;DHT22;68131;52.508;5.502;2023-04-15T04:16:58;7.50;72.40
78788;DHT22;68131;52.508;5.502;2023-04-15T04:19:27;7.50;72.50
78788;DHT22;68131;52.508;5.502;2023-04-15T04:21:56;7.50;72.60
78788;DHT22;68131;52.508;5.502;2023-04-15T04:24:25;7.40;72.70
78788;DHT22;68131;52.508;5.502;2023-04-15T04:26:54;7.40;72.70
78788;DHT22;68131;52.508;5.502;2023-04-15T04:29:24;7.40;72.80
78788;DHT22;68131;52.508;5.502;2023-04-15T04:31:53;7.40;72.80
78788;DHT22;68131;52.508;5.502;2023-04-15T04:34:25;7.50;72.90
78788;DHT22;68131;52.508;5.502;2023-04-15T04:36:54;7.40;73.00
78788;DHT22;68131;52.508;5.502;2023-04-15T04:39:23;7.40;73.10
78788;DHT22;68131;52.508;5.502;2023-04-15T04:41:52;7.50;73.00
78788;DHT22;68131;52.508;5.502;2023-04-15T04:44:21;7.50;73.20
78788;DHT22;68131;52.508;5.502;2023-04-15T04:46:50;7.50;73.00
78788;DHT22;68131;52.508;5.502;2023-04-15T04:49:19;7.50;73.10
78788;DHT22;68131;52.508;5.502;2023-04-15T04:51:51;7.50;73.20
78788;DHT22;68131;52.508;5.502;2023-04-15T04:54:20;7.50;73.10
78788;DHT22;68131;52.508;5.502;2023-04-15T04:56:49;7.50;73.10
78788;DHT22;68131;52.508;5.502;2023-04-15T04:59:18;7.50;73.00
78788;DHT22;68131;52.508;5.502;2023-04-15T05:01:48;7.60;72.90
78788;DHT22;68131;52.508;5.502;2023-04-15T05:04:17;7.60;72.90
78788;DHT22;68131;52.508;5.502;2023-04-15T05:06:46;7.70;72.80
78788;DHT22;68131;52.508;5.502;2023-04-15T05:09:18;7.70;72.90
78788;DHT22;68131;52.508;5.502;2023-04-15T05:11:47;7.70;72.80
78788;DHT22;68131;52.508;5.502;2023-04-15T05:14:16;7.70;72.80
78788;DHT22;68131;52.508;5.502;2023-04-15T05:16:45;7.90;73.00
78788;DHT22;68131;52.508;5.502;2023-04-15T05:19:14;8.40;72.50
78788;DHT22;68131;52.508;5.502;2023-04-15T05:21:43;9.00;71.40
78788;DHT22;68131;52.508;5.502;2023-04-15T05:24:12;9.40;70.00
78788;DHT22;68131;52.508;5.502;2023-04-15T05:26:44;9.50;68.90
78788;DHT22;68131;52.508;5.502;2023-04-15T05:29:13;9.40;68.90
78788;DHT22;68131;52.508;5.502;2023-04-15T05:31:42;9.30;68.90
78788;DHT22;68131;52.508;5.502;2023-04-15T05:34:11;9.20;69.20
78788;DHT22;68131;52.508;5.502;2023-04-15T05:36:41;9.30;69.20
78788;DHT22;68131;52.508;5.502;2023-04-15T05:39:11;9.60;69.00
78788;DHT22;68131;52.508;5.502;2023-04-15T05:41:40;10.00;68.30
78788;DHT22;68131;52.508;5.502;2023-04-15T05:44:11;10.40;67.40
78788;DHT22;68131;52.508;5.502;2023-04-15T05:46:40;10.60;66.90
78788;DHT22;68131;52.508;5.502;2023-04-15T05:49:10;10.70;66.10
78788;DHT22;68131;52.508;5.502;2023-04-15T05:51:39;10.70;66.20
78788;DHT22;68131;52.508;5.502;2023-04-15T05:54:08;10.60;66.40
78788;DHT22;68131;52.508;5.502;2023-04-15T05:56:37;10.50;66.30
78788;DHT22;68131;52.508;5.502;2023-04-15T05:59:06;10.30;66.50
78788;DHT22;68131;52.508;5.502;2023-04-15T06:01:38;10.00;66.90
78788;DHT22;68131;52.508;5.502;2023-04-15T06:04:08;9.80;67.30
78788;DHT22;68131;52.508;5.502;2023-04-15T06:06:37;9.70;67.60
78788;DHT22;68131;52.508;5.502;2023-04-15T06:09:06;9.60;67.80
78788;DHT22;68131;52.508;5.502;2023-04-15T06:11:35;9.50;67.90
78788;DHT22;68131;52.508;5.502;2023-04-15T06:14:06;9.40;68.10
78788;DHT22;68131;52.508;5.502;2023-04-15T06:16:38;9.30;68.40
78788;DHT22;68131;52.508;5.502;2023-04-15T06:19:07;9.20;68.70
78788;DHT22;68131;52.508;5.502;2023-04-15T06:21:37;9.30;68.70
78788;DHT22;68131;52.508;5.502;2023-04-15T06:24:07;9.30;68.80
78788;DHT22;68131;52.508;5.502;2023-04-15T06:26:36;9.40;68.70
78788;DHT22;68131;52.508;5.502;2023-04-15T06:29:05;9.50;68.70
78788;DHT22;68131;52.508;5.502;2023-04-15T06:31:34;9.60;68.50
78788;DHT22;68131;52.508;5.502;2023-04-15T06:34:05;9.60;68.40
78788;DHT22;68131;52.508;5.502;2023-04-15T06:36:35;9.80;68.40
78788;DHT22;68131;52.508;5.502;2023-04-15T06:39:04;10.00;67.90
78788;DHT22;68131;52.508;5.502;2023-04-15T06:41:34;10.10;67.60
78788;DHT22;68131;52.508;5.502;2023-04-15T06:44:04;10.20;67.40
78788;DHT22;68131;52.508;5.502;2023-04-15T06:46:33;10.40;67.20
78788;DHT22;68131;52.508;5.502;2023-04-15T06:49:04;10.60;66.50
78788;DHT22;68131;52.508;5.502;2023-04-15T06:51:34;10.60;66.30
78788;DHT22;68131;52.508;5.502;2023-04-15T06:54:04;10.60;66.30
78788;DHT22;68131;52.508;5.502;2023-04-15T06:56:33;10.50;66.30
78788;DHT22;68131;52.508;5.502;2023-04-15T06:59:02;10.40;66.30
78788;DHT22;68131;52.508;5.502;2023-04-15T07:01:31;10.40;66.30
78788;DHT22;68131;52.508;5.502;2023-04-15T07:04:00;10.40;66.50
78788;DHT22;68131;52.508;5.502;2023-04-15T07:06:33;10.40;66.70
78788;DHT22;68131;52.508;5.502;2023-04-15T07:09:02;10.50;66.60
78788;DHT22;68131;52.508;5.502;2023-04-15T07:11:31;10.60;66.40
78788;DHT22;68131;52.508;5.502;2023-04-15T07:14:01;10.60;66.30
78788;DHT22;68131;52.508;5.502;2023-04-15T07:16:31;10.60;66.30
78788;DHT22;68131;52.508;5.502;2023-04-15T07:19:00;10.50;66.10
78788;DHT22;68131;52.508;5.502;2023-04-15T07:21:32;10.40;66.20
78788;DHT22;68131;52.508;5.502;2023-04-15T07:24:01;10.40;66.40
78788;DHT22;68131;52.508;5.502;2023-04-15T07:26:30;10.30;66.40
78788;DHT22;68131;52.508;5.502;2023-04-15T07:28:59;10.30;66.40
78788;DHT22;68131;52.508;5.502;2023-04-15T07:31:29;10.30;66.30
78788;DHT22;68131;52.508;5.502;2023-04-15T07:33:58;10.30;66.50
78788;DHT22;68131;52.508;5.502;2023-04-15T07:36:27;10.30;66.70
78788;DHT22;68131;52.508;5.502;2023-04-15T07:38:59;10.50;66.50
78788;DHT22;68131;52.508;5.502;2023-04-15T07:41:29;10.70;66.10
78788;DHT22;68131;52.508;5.502;2023-04-15T07:43:59;10.80;65.90
78788;DHT22;68131;52.508;5.502;2023-04-15T07:46:28;11.00;65.30
78788;DHT22;68131;52.508;5.502;2023-04-15T07:48:57;11.00;65.20
78788;DHT22;68131;52.508;5.502;2023-04-15T07:51:26;10.90;65.50
78788;DHT22;68131;52.508;5.502;2023-04-15T07:53:55;10.90;65.50
78788;DHT22;68131;52.508;5.502;2023-04-15T07:56:27;10.90;65.60
78788;DHT22;68131;52.508;5.502;2023-04-15T07:58:57;10.90;65.40
78788;DHT22;68131;52.508;5.502;2023-04-15T08:01:27;10.90;65.50
78788;DHT22;68131;52.508;5.502;2023-04-15T08:03:56;10.90;65.30
78788;DHT22;68131;52.508;5.502;2023-04-15T08:06:25;10.80;65.30
78788;DHT22;68131;52.508;5.502;2023-04-15T08:08:55;10.70;65.50
78788;DHT22;68131;52.508;5.502;2023-04-15T08:11:26;10.60;65.70
78788;DHT22;68131;52.508;5.502;2023-04-15T08:13:56;10.60;65.70
78788;DHT22;68131;52.508;5.502;2023-04-15T08:16:25;10.70;65.90
78788;DHT22;68131;52.508;5.502;2023-04-15T08:18:55;10.70;65.90
78788;DHT22;68131;52.508;5.502;2023-04-15T08:21:24;10.80;65.60
78788;DHT22;68131;52.508;5.502;2023-04-15T08:23:55;10.80;65.80
78788;DHT22;68131;52.508;5.502;2023-04-15T08:26:28;11.00;65.90
78788;DHT22;68131;52.508;5.502;2023-04-15T08:28:57;11.10;65.40
78788;DHT22;68131;52.508;5.502;2023-04-15T08:31:28;11.20;65.10
78788;DHT22;68131;52.508;5.502;2023-04-15T08:33:57;11.30;65.10
78788;DHT22;68131;52.508;5.502;2023-04-15T08:36:27;11.40;64.50
78788;DHT22;68131;52.508;5.502;2023-04-15T08:38:57;11.60;64.10
78788;DHT22;68131;52.508;5.502;2023-04-15T08:41:34;11.60;64.20
78788;DHT22;68131;52.508;5.502;2023-04-15T08:44:09;11.70;64.30
78788;DHT22;68131;52.508;5.502;2023-04-15T08:46:38;11.70;64.00
78788;DHT22;68131;52.508;5.502;2023-04-15T08:49:10;11.80;64.50
78788;DHT22;68131;52.508;5.502;2023-04-15T08:51:40;11.90;64.20
78788;DHT22;68131;52.508;5.502;2023-04-15T08:54:10;12.00;64.00
78788;DHT22;68131;52.508;5.502;2023-04-15T08:56:42;12.00;64.10
78788;DHT22;68131;52.508;5.502;2023-04-15T08:59:11;12.00;64.50
78788;DHT22;68131;52.508;5.502;2023-04-15T09:01:41;12.10;64.10
78788;DHT22;68131;52.508;5.502;2023-04-15T09:04:11;12.10;64.00
78788;DHT22;68131;52.508;5.502;2023-04-15T09:06:40;12.10;64.10
78788;DHT22;68131;52.508;5.502;2023-04-15T09:09:11;12.10;64.10
78788;DHT22;68131;52.508;5.502;2023-04-15T09:11:42;12.10;64.30
78788;DHT22;68131;52.508;5.502;2023-04-15T09:14:12;12.20;64.40
78788;DHT22;68131;52.508;5.502;2023-04-15T09:16:57;12.40;64.00
78788;DHT22;68131;52.508;5.502;2023-04-15T09:19:26;12.40;63.70
78788;DHT22;68131;52.508;5.502;2023-04-15T09:21:57;12.40;63.30
78788;DHT22;68131;52.508;5.502;2023-04-15T09:24:35;12.40;63.80
78788;DHT22;68131;52.508;5.502;2023-04-15T09:27:08;12.60;64.10
78788;DHT22;68131;52.508;5.502;2023-04-15T09:29:39;12.80;64.00
78788;DHT22;68131;52.508;5.502;2023-04-15T09:32:10;12.80;63.60
78788;DHT22;68131;52.508;5.502;2023-04-15T09:34:39;12.70;63.10
78788;DHT22;68131;52.508;5.502;2023-04-15T09:37:08;12.80;63.20
78788;DHT22;68131;52.508;5.502;2023-04-15T09:39:46;12.90;63.50
78788;DHT22;68131;52.508;5.502;2023-04-15T09:42:18;13.00;63.60
78788;DHT22;68131;52.508;5.502;2023-04-15T09:44:49;13.10;63.20
78788;DHT22;68131;52.508;5.502;2023-04-15T09:47:28;13.10;63.50
78788;DHT22;68131;52.508;5.502;2023-04-15T09:49:58;13.20;63.50
78788;DHT22;68131;52.508;5.502;2023-04-15T09:52:28;13.30;63.10
78788;DHT22;68131;52.508;5.502;2023-04-15T09:54:58;13.40;61.80
78788;DHT22;68131;52.508;5.502;2023-04-15T09:57:36;13.30;62.10
78788;DHT22;68131;52.508;5.502;2023-04-15T10:00:08;13.30;61.90
78788;DHT22;68131;52.508;5.502;2023-04-15T10:02:39;13.30;60.90
78788;DHT22;68131;52.508;5.502;2023-04-15T10:05:10;13.30;60.70
78788;DHT22;68131;52.508;5.502;2023-04-15T10:07:40;13.20;60.70
78788;DHT22;68131;52.508;5.502;2023-04-15T10:10:10;13.10;60.70
78788;DHT22;68131;52.508;5.502;2023-04-15T10:12:43;13.10;61.50
78788;DHT22;68131;52.508;5.502;2023-04-15T10:15:14;13.10;61.20
78788;DHT22;68131;52.508;5.502;2023-04-15T10:17:44;13.20;61.10
78788;DHT22;68131;52.508;5.502;2023-04-15T10:20:16;13.20;60.60
78788;DHT22;68131;52.508;5.502;2023-04-15T10:22:48;13.10;60.60
78788;DHT22;68131;52.508;5.502;2023-04-15T10:25:17;13.10;60.80
78788;DHT22;68131;52.508;5.502;2023-04-15T10:27:50;13.00;60.90
78788;DHT22;68131;52.508;5.502;2023-04-15T10:30:20;13.10;61.20
78788;DHT22;68131;52.508;5.502;2023-04-15T10:32:49;13.20;60.70
78788;DHT22;68131;52.508;5.502;2023-04-15T10:35:20;13.30;61.20
78788;DHT22;68131;52.508;5.502;2023-04-15T10:37:50;13.40;61.10
78788;DHT22;68131;52.508;5.502;2023-04-15T10:40:27;13.50;60.50
78788;DHT22;68131;52.508;5.502;2023-04-15T10:43:00;13.30;60.80
78788;DHT22;68131;52.508;5.502;2023-04-15T10:45:33;13.20;61.20
78788;DHT22;68131;52.508;5.502;2023-04-15T10:48:03;13.30;61.20
78788;DHT22;68131;52.508;5.502;2023-04-15T10:50:36;13.30;61.50
78788;DHT22;68131;52.508;5.502;2023-04-15T10:53:05;13.30;61.30
78788;DHT22;68131;52.508;5.502;2023-04-15T10:55:37;13.30;61.50
78788;DHT22;68131;52.508;5.502;2023-04-15T10:58:09;13.30;61.50
78788;DHT22;68131;52.508;5.502;2023-04-15T11:00:40;13.20;61.20
78788;DHT22;68131;52.508;5.502;2023-04-15T11:03:35;13.20;61.10
78788;DHT22;68131;52.508;5.502;2023-04-15T11:06:07;13.10;61.60
78788;DHT22;68131;52.508;5.502;2023-04-15T11:08:53;13.10;61.70
78788;DHT22;68131;52.508;5.502;2023-04-15T11:14:40;13.10;61.40
78788;DHT22;68131;52.508;5.502;2023-04-15T11:17:09;13.20;61.60
78788;DHT22;68131;52.508;5.502;2023-04-15T11:19:38;13.20;61.00
78788;DHT22;68131;52.508;5.502;2023-04-15T11:22:08;13.20;61.30
78788;DHT22;68131;52.508;5.502;2023-04-15T11:24:46;13.30;61.30
78788;DHT22;68131;52.508;5.502;2023-04-15T11:27:21;13.40;61.00
78788;DHT22;68131;52.508;5.502;2023-04-15T11:29:52;13.60;60.70
78788;DHT22;68131;52.508;5.502;2023-04-15T11:32:21;13.60;60.40
78788;DHT22;68131;52.508;5.502;2023-04-15T11:34:51;13.50;60.70
78788;DHT22;68131;52.508;5.502;2023-04-15T11:37:27;13.50;60.90
78788;DHT22;68131;52.508;5.502;2023-04-15T11:39:56;13.60;61.00
78788;DHT22;68131;52.508;5.502;2023-04-15T11:42:25;13.70;61.10
78788;DHT22;68131;52.508;5.502;2023-04-15T11:45:08;13.70;60.80
78788;DHT22;68131;52.508;5.502;2023-04-15T11:47:37;13.80;60.90
78788;DHT22;68131;52.508;5.502;2023-04-15T11:50:14;13.70;60.50
78788;DHT22;68131;52.508;5.502;2023-04-15T11:52:52;13.70;60.70
78788;DHT22;68131;52.508;5.502;2023-04-15T11:55:22;13.70;60.30
78788;DHT22;68131;52.508;5.502;2023-04-15T11:58:07;13.60;60.80
78788;DHT22;68131;52.508;5.502;2023-04-15T12:00:39;13.50;60.90
78788;DHT22;68131;52.508;5.502;2023-04-15T12:03:12;13.50;61.00
78788;DHT22;68131;52.508;5.502;2023-04-15T12:06:04;13.50;60.90
78788;DHT22;68131;52.508;5.502;2023-04-15T12:08:54;13.40;61.40
78788;DHT22;68131;52.508;5.502;2023-04-15T12:11:29;13.40;61.90
78788;DHT22;68131;52.508;5.502;2023-04-15T12:14:03;13.40;62.00
78788;DHT22;68131;52.508;5.502;2023-04-15T12:16:36;13.50;61.70
78788;DHT22;68131;52.508;5.502;2023-04-15T12:19:08;13.60;60.90
78788;DHT22;68131;52.508;5.502;2023-04-15T12:21:39;13.50;61.00
78788;DHT22;68131;52.508;5.502;2023-04-15T12:24:10;13.40;61.50
78788;DHT22;68131;52.508;5.502;2023-04-15T12:26:43;13.40;61.50
78788;DHT22;68131;52.508;5.502;2023-04-15T12:29:14;13.50;60.90
78788;DHT22;68131;52.508;5.502;2023-04-15T12:31:51;13.30;60.50
78788;DHT22;68131;52.508;5.502;2023-04-15T12:34:28;13.20;61.20
78788;DHT22;68131;52.508;5.502;2023-04-15T12:36:59;13.20;61.10
78788;DHT22;68131;52.508;5.502;2023-04-15T12:39:31;13.20;61.50
78788;DHT22;68131;52.508;5.502;2023-04-15T12:42:00;13.30;61.50
78788;DHT22;68131;52.508;5.502;2023-04-15T12:44:32;13.20;61.70
78788;DHT22;68131;52.508;5.502;2023-04-15T12:47:05;13.20;62.10
78788;DHT22;68131;52.508;5.502;2023-04-15T12:49:34;13.20;61.70
78788;DHT22;68131;52.508;5.502;2023-04-15T12:52:04;13.20;61.50
78788;DHT22;68131;52.508;5.502;2023-04-15T12:54:33;13.10;61.30
78788;DHT22;68131;52.508;5.502;2023-04-15T12:57:03;13.00;61.70
78788;DHT22;68131;52.508;5.502;2023-04-15T12:59:32;13.00;62.00
78788;DHT22;68131;52.508;5.502;2023-04-15T13:02:04;13.00;62.40
78788;DHT22;68131;52.508;5.502;2023-04-15T13:04:33;13.00;62.50
78788;DHT22;68131;52.508;5.502;2023-04-15T13:07:02;12.90;62.20
78788;DHT22;68131;52.508;5.502;2023-04-15T13:09:32;12.70;62.50
78788;DHT22;68131;52.508;5.502;2023-04-15T13:12:01;12.70;62.20
78788;DHT22;68131;52.508;5.502;2023-04-15T13:14:30;12.70;62.40
78788;DHT22;68131;52.508;5.502;2023-04-15T13:16:59;12.60;62.70
78788;DHT22;68131;52.508;5.502;2023-04-15T13:19:36;12.60;62.50
78788;DHT22;68131;52.508;5.502;2023-04-15T13:22:06;12.60;62.50
78788;DHT22;68131;52.508;5.502;2023-04-15T13:24:36;12.60;62.30
78788;DHT22;68131;52.508;5.502;2023-04-15T13:27:06;12.50;62.40
78788;DHT22;68131;52.508;5.502;2023-04-15T13:29:35;12.30;62.80
78788;DHT22;68131;52.508;5.502;2023-04-15T13:32:05;12.30;63.40
78788;DHT22;68131;52.508;5.502;2023-04-15T13:34:37;12.30;63.80
78788;DHT22;68131;52.508;5.502;2023-04-15T13:37:06;12.40;64.30
78788;DHT22;68131;52.508;5.502;2023-04-15T13:39:35;12.50;64.40
78788;DHT22;68131;52.508;5.502;2023-04-15T13:42:04;12.50;64.30
78788;DHT22;68131;52.508;5.502;2023-04-15T13:44:34;12.50;64.00
78788;DHT22;68131;52.508;5.502;2023-04-15T13:47:03;12.60;63.90
78788;DHT22;68131;52.508;5.502;2023-04-15T13:49:32;12.50;64.00
78788;DHT22;68131;52.508;5.502;2023-04-15T13:52:04;12.50;64.10
78788;DHT22;68131;52.508;5.502;2023-04-15T13:54:33;12.40;64.10
78788;DHT22;68131;52.508;5.502;2023-04-15T13:57:02;12.40;64.00
78788;DHT22;68131;52.508;5.502;2023-04-15T13:59:32;12.40;63.90
78788;DHT22;68131;52.508;5.502;2023-04-15T14:02:01;12.40;63.60
78788;DHT22;68131;52.508;5.502;2023-04-15T14:04:30;12.40;63.30
78788;DHT22;68131;52.508;5.502;2023-04-15T14:07:00;12.50;63.00
78788;DHT22;68131;52.508;5.502;2023-04-15T14:09:31;12.50;62.80
78788;DHT22;68131;52.508;5.502;2023-04-15T14:12:01;12.30;63.50
78788;DHT22;68131;52.508;5.502;2023-04-15T14:14:30;12.30;63.80
78788;DHT22;68131;52.508;5.502;2023-04-15T14:16:59;12.30;63.90
78788;DHT22;68131;52.508;5.502;2023-04-15T14:19:29;12.30;63.90
78788;DHT22;68131;52.508;5.502;2023-04-15T14:21:59;12.30;64.00
78788;DHT22;68131;52.508;5.502;2023-04-15T14:24:31;12.40;63.40
78788;DHT22;68131;52.508;5.502;2023-04-15T14:27:00;12.40;63.30
78788;DHT22;68131;52.508;5.502;2023-04-15T14:29:29;12.30;63.40
78788;DHT22;68131;52.508;5.502;2023-04-15T14:31:58;12.40;63.40
78788;DHT22;68131;52.508;5.502;2023-04-15T14:34:27;12.40;63.40
78788;DHT22;68131;52.508;5.502;2023-04-15T14:36:56;12.30;63.50
78788;DHT22;68131;52.508;5.502;2023-04-15T14:39:25;12.20;63.60
78788;DHT22;68131;52.508;5.502;2023-04-15T14:41:57;12.00;64.10
78788;DHT22;68131;52.508;5.502;2023-04-15T14:44:26;11.90;64.60
78788;DHT22;68131;52.508;5.502;2023-04-15T14:46:56;11.80;64.90
78788;DHT22;68131;52.508;5.502;2023-04-15T14:49:25;11.70;65.10
78788;DHT22;68131;52.508;5.502;2023-04-15T14:51:54;11.60;65.00
78788;DHT22;68131;52.508;5.502;2023-04-15T14:54:23;11.50;65.10
78788;DHT22;68131;52.508;5.502;2023-04-15T14:56:52;11.40;65.40
78788;DHT22;68131;52.508;5.502;2023-04-15T14:59:24;11.40;65.00
78788;DHT22;68131;52.508;5.502;2023-04-15T15:01:53;11.30;65.20
78788;DHT22;68131;52.508;5.502;2023-04-15T15:04:22;11.30;65.40
78788;DHT22;68131;52.508;5.502;2023-04-15T15:06:51;11.30;65.20
78788;DHT22;68131;52.508;5.502;2023-04-15T15:09:20;11.30;65.50
78788;DHT22;68131;52.508;5.502;2023-04-15T15:11:50;11.20;66.10
78788;DHT22;68131;52.508;5.502;2023-04-15T15:14:19;11.10;66.60
78788;DHT22;68131;52.508;5.502;2023-04-15T15:16:50;11.10;66.70
78788;DHT22;68131;52.508;5.502;2023-04-15T15:19:20;11.10;66.40
78788;DHT22;68131;52.508;5.502;2023-04-15T15:21:50;11.20;66.50
78788;DHT22;68131;52.508;5.502;2023-04-15T15:24:19;11.20;66.10
78788;DHT22;68131;52.508;5.502;2023-04-15T15:26:48;11.20;66.00
78788;DHT22;68131;52.508;5.502;2023-04-15T15:29:17;11.20;66.10
78788;DHT22;68131;52.508;5.502;2023-04-15T15:31:46;11.20;66.20
78788;DHT22;68131;52.508;5.502;2023-04-15T15:34:18;11.20;66.30
78788;DHT22;68131;52.508;5.502;2023-04-15T15:36:47;11.20;66.20
78788;DHT22;68131;52.508;5.502;2023-04-15T15:39:16;11.10;66.40
78788;DHT22;68131;52.508;5.502;2023-04-15T15:41:45;11.10;66.80
78788;DHT22;68131;52.508;5.502;2023-04-15T15:44:15;11.00;67.20
78788;DHT22;68131;52.508;5.502;2023-04-15T15:46:44;10.90;67.40
78788;DHT22;68131;52.508;5.502;2023-04-15T15:49:13;10.90;67.40
78788;DHT22;68131;52.508;5.502;2023-04-15T15:51:45;10.90;67.00
78788;DHT22;68131;52.508;5.502;2023-04-15T15:54:14;10.90;67.20
78788;DHT22;68131;52.508;5.502;2023-04-15T15:56:44;10.90;67.20
78788;DHT22;68131;52.508;5.502;2023-04-15T15:59:13;10.90;67.40
78788;DHT22;68131;52.508;5.502;2023-04-15T16:01:42;10.80;67.30